createdAt,value
2024-01-30T00:00:43.001Z,102359.28
2024-01-30T00:03:10.338Z,102362.34
2024-01-30T00:05:50.060Z,102371.59
2024-01-30T00:08:20.865Z,102375.47
2024-01-30T00:10:50.551Z,102365.34
2024-01-30T00:13:20.638Z,102361.28
2024-01-30T00:15:48.383Z,102356.09
2024-01-30T00:18:15.835Z,102361.47
2024-01-30T00:20:50.264Z,102351.19
2024-01-30T00:23:17.532Z,102350.06
2024-01-30T00:25:48.164Z,102343.19
2024-01-30T00:28:17.820Z,102342.38
2024-01-30T00:30:47.126Z,102341.81
2024-01-30T00:33:17.543Z,102342.91
2024-01-30T00:35:47.304Z,102337.25
2024-01-30T00:38:17.525Z,102334.34
2024-01-30T00:40:47.362Z,102335.44
2024-01-30T00:43:17.892Z,102339.34
2024-01-30T00:46:04.735Z,102334.31
2024-01-30T00:48:34.193Z,102340.28
2024-01-30T00:51:10.379Z,102334.91
2024-01-30T00:53:37.701Z,102340.28
2024-01-30T00:56:05.319Z,102337.91
2024-01-30T00:58:32.560Z,102344.16
2024-01-30T01:00:59.971Z,102329.59
2024-01-30T01:03:27.331Z,102333.72
2024-01-30T01:05:57.139Z,102322.25
2024-01-30T01:08:24.306Z,102335.00
2024-01-30T01:10:53.825Z,102321.13
2024-01-30T01:13:21.296Z,102312.28
2024-01-30T01:15:48.695Z,102311.16
2024-01-30T01:18:20.158Z,102313.94
2024-01-30T01:21:11.290Z,102308.81
2024-01-30T01:23:39.724Z,102316.03
2024-01-30T01:26:30.211Z,102311.56
2024-01-30T01:28:57.369Z,102312.91
2024-01-30T01:31:26.204Z,102319.63
2024-01-30T01:33:53.600Z,102311.16
2024-01-30T01:36:21.996Z,102324.91
2024-01-30T01:39:06.854Z,102331.97
2024-01-30T01:41:46.135Z,102317.13
2024-01-30T01:44:17.676Z,102327.97
2024-01-30T01:46:45.488Z,102317.00
2024-01-30T01:49:24.344Z,102317.28
2024-01-30T01:52:01.374Z,102321.13
2024-01-30T01:54:31.257Z,102310.91
2024-01-30T01:56:58.453Z,102312.53
2024-01-30T01:59:26.398Z,102319.09
2024-01-30T02:01:55.624Z,102314.63
2024-01-30T02:04:22.894Z,102307.28
2024-01-30T02:06:52.816Z,102310.31
2024-01-30T02:09:20.190Z,102304.06
2024-01-30T02:11:47.412Z,102304.78
2024-01-30T02:14:15.670Z,102302.28
2024-01-30T02:16:42.961Z,102302.16
2024-01-30T02:19:10.352Z,102307.97
2024-01-30T02:21:37.543Z,102314.09
2024-01-30T02:24:06.058Z,102315.59
2024-01-30T02:26:33.103Z,102316.00
2024-01-30T02:29:00.264Z,102319.22
2024-01-30T02:31:27.835Z,102323.91
2024-01-30T02:33:55.137Z,102315.47
2024-01-30T02:36:22.509Z,102308.69
2024-01-30T02:38:51.369Z,102308.38
2024-01-30T02:41:19.540Z,102312.69
2024-01-30T02:43:46.648Z,102317.69
2024-01-30T02:46:13.732Z,102300.91
2024-01-30T02:48:40.989Z,102299.94
2024-01-30T02:51:12.960Z,102304.94
2024-01-30T02:53:40.042Z,102302.16
2024-01-30T02:56:10.806Z,102308.94
2024-01-30T02:58:38.661Z,102310.47
2024-01-30T03:01:07.870Z,102300.34
2024-01-30T03:03:38.198Z,102306.19
2024-01-30T03:06:51.728Z,102308.81
2024-01-30T03:09:19.334Z,102296.47
2024-01-30T03:12:28.017Z,102296.06
2024-01-30T03:14:55.070Z,102296.47
2024-01-30T03:17:22.155Z,102277.59
2024-01-30T03:19:49.497Z,102282.59
2024-01-30T03:22:18.142Z,102293.41
2024-01-30T03:24:48.191Z,102285.38
2024-01-30T03:27:16.174Z,102290.91
2024-01-30T03:29:47.892Z,102298.53
2024-01-30T03:32:15.077Z,102297.31
2024-01-30T03:34:43.322Z,102303.22
2024-01-30T03:37:12.065Z,102296.84
2024-01-30T03:39:39.262Z,102293.38
2024-01-30T03:42:06.478Z,102287.59
2024-01-30T03:44:39.426Z,102290.38
2024-01-30T03:47:17.559Z,102297.72
2024-01-30T03:49:44.765Z,102302.16
2024-01-30T03:52:11.895Z,102291.19
2024-01-30T03:54:39.181Z,102294.50
2024-01-30T03:57:06.942Z,102291.88
2024-01-30T03:59:34.018Z,102296.72
2024-01-30T04:02:01.643Z,102292.72
2024-01-30T04:04:28.870Z,102283.16
2024-01-30T04:06:56.037Z,102286.31
2024-01-30T04:09:23.160Z,102276.91
2024-01-30T04:11:53.832Z,102280.09
2024-01-30T04:14:20.917Z,102270.00
2024-01-30T04:16:49.012Z,102280.78
2024-01-30T04:19:17.204Z,102276.66
2024-01-30T04:21:45.443Z,102278.16
2024-01-30T04:24:13.946Z,102272.47
2024-01-30T04:26:41.122Z,102278.44
2024-01-30T04:29:08.319Z,102271.75
2024-01-30T04:31:40.538Z,102269.72
2024-01-30T04:34:08.736Z,102270.06
2024-01-30T04:36:38.384Z,102280.78
2024-01-30T04:39:07.549Z,102272.28
2024-01-30T04:41:35.066Z,102275.63
2024-01-30T04:44:02.264Z,102269.50
2024-01-30T04:46:35.737Z,102263.81
2024-01-30T04:49:03.002Z,102272.28
2024-01-30T04:52:09.831Z,102277.81
2024-01-30T04:54:37.208Z,102286.56
2024-01-30T04:57:22.488Z,102277.13
2024-01-30T04:59:49.622Z,102266.13
2024-01-30T05:02:17.826Z,102268.59
2024-01-30T05:04:45.069Z,102272.34
2024-01-30T05:07:12.451Z,102273.81
2024-01-30T05:09:39.672Z,102268.81
2024-01-30T05:12:08.671Z,102266.66
2024-01-30T05:14:53.386Z,102269.31
2024-01-30T05:17:51.759Z,102269.63
2024-01-30T05:20:29.890Z,102271.59
2024-01-30T05:22:57.340Z,102279.78
2024-01-30T05:25:24.808Z,102286.06
2024-01-30T05:27:51.960Z,102281.06
2024-01-30T05:30:18.992Z,102292.13
2024-01-30T05:32:46.320Z,102298.91
2024-01-30T05:35:13.584Z,102304.22
2024-01-30T05:37:40.835Z,102301.31
2024-01-30T05:40:09.171Z,102305.59
2024-01-30T05:42:36.289Z,102302.94
2024-01-30T05:45:28.659Z,102300.19
2024-01-30T05:48:05.777Z,102297.44
2024-01-30T05:50:43.723Z,102296.56
2024-01-30T05:53:13.184Z,102327.50
2024-01-30T05:55:43.573Z,102320.72
2024-01-30T05:58:12.853Z,102317.28
2024-01-30T06:00:56.563Z,102327.78
2024-01-30T06:03:23.660Z,102317.00
2024-01-30T06:05:50.728Z,102314.91
2024-01-30T06:08:25.798Z,102322.66
2024-01-30T06:10:53.280Z,102325.41
2024-01-30T06:13:20.938Z,102323.53
2024-01-30T06:15:48.034Z,102313.31
2024-01-30T06:18:15.132Z,102328.09
2024-01-30T06:20:42.326Z,102336.53
2024-01-30T06:23:09.515Z,102338.34
2024-01-30T06:25:36.534Z,102335.84
2024-01-30T06:28:03.595Z,102340.69
2024-01-30T06:30:31.020Z,102335.03
2024-01-30T06:32:59.159Z,102338.09
2024-01-30T06:35:29.939Z,102350.97
2024-01-30T06:38:50.443Z,102343.59
2024-01-30T06:41:17.577Z,102348.59
2024-01-30T06:43:58.114Z,102347.66
2024-01-30T06:46:25.255Z,102345.81
2024-01-30T06:48:52.385Z,102358.47
2024-01-30T06:51:19.518Z,102354.03
2024-01-30T06:53:46.473Z,102347.75
2024-01-30T06:56:13.729Z,102352.06
2024-01-30T06:58:40.899Z,102352.06
2024-01-30T07:01:19.467Z,102356.53
2024-01-30T07:03:53.825Z,102351.66
2024-01-30T07:06:22.070Z,102355.13
2024-01-30T07:08:50.600Z,102363.47
2024-01-30T07:11:23.365Z,102360.78
2024-01-30T07:13:52.166Z,102375.38
2024-01-30T07:16:19.315Z,102373.69
2024-01-30T07:18:46.736Z,102368.00
2024-01-30T07:21:13.768Z,102375.63
2024-01-30T07:23:40.942Z,102381.00
2024-01-30T07:26:07.980Z,102379.13
2024-01-30T07:28:35.756Z,102379.53
2024-01-30T07:31:03.320Z,102387.28
2024-01-30T07:33:30.314Z,102391.63
2024-01-30T07:35:57.691Z,102392.72
2024-01-30T07:38:26.751Z,102397.09
2024-01-30T07:40:53.910Z,102395.59
2024-01-30T07:43:21.548Z,102396.53
2024-01-30T07:45:48.739Z,102401.72
2024-01-30T07:48:15.893Z,102406.50
2024-01-30T07:50:43.408Z,102411.47
2024-01-30T07:53:11.558Z,102407.50
2024-01-30T07:55:38.687Z,102418.31
2024-01-30T07:58:06.038Z,102421.47
2024-01-30T08:00:33.380Z,102430.13
2024-01-30T08:03:00.637Z,102424.75
2024-01-30T08:05:28.019Z,102433.41
2024-01-30T08:07:55.124Z,102432.66
2024-01-30T08:10:23.343Z,102441.16
2024-01-30T08:12:50.471Z,102448.09
2024-01-30T08:15:17.633Z,102451.69
2024-01-30T08:17:45.976Z,102447.03
2024-01-30T08:21:12.425Z,102449.75
2024-01-30T08:23:43.955Z,102467.72
2024-01-30T08:26:39.784Z,102474.56
2024-01-30T08:29:07.115Z,102468.53
2024-01-30T08:31:34.552Z,102471.13
2024-01-30T08:34:01.787Z,102478.63
2024-01-30T08:36:29.143Z,102473.03
2024-01-30T08:38:59.209Z,102480.34
2024-01-30T08:41:29.004Z,102477.91
2024-01-30T08:43:56.069Z,102486.38
2024-01-30T08:46:23.129Z,102485.69
2024-01-30T08:48:58.239Z,102490.53
2024-01-30T08:51:27.358Z,102492.91
2024-01-30T08:53:55.243Z,102497.13
2024-01-30T08:56:22.379Z,102496.38
2024-01-30T08:58:49.590Z,102498.66
2024-01-30T09:01:16.876Z,102502.75
2024-01-30T09:03:46.831Z,102507.94
2024-01-30T09:06:14.196Z,102509.69
2024-01-30T09:08:41.179Z,102514.34
2024-01-30T09:11:14.007Z,102517.94
2024-01-30T09:13:41.138Z,102522.75
2024-01-30T09:16:08.924Z,102516.16
2024-01-30T09:18:36.029Z,102513.38
2024-01-30T09:21:03.177Z,102519.53
2024-01-30T09:23:30.238Z,102512.38
2024-01-30T09:25:57.450Z,102512.88
2024-01-30T09:28:27.550Z,102511.81
2024-01-30T09:30:54.985Z,102519.03
2024-01-30T09:33:22.153Z,102519.66
2024-01-30T09:35:49.257Z,102539.66
2024-01-30T09:38:16.414Z,102535.81
2024-01-30T09:40:43.861Z,102540.91
2024-01-30T09:43:18.260Z,102539.34
2024-01-30T09:45:48.360Z,102548.13
2024-01-30T09:48:16.510Z,102550.81
2024-01-30T09:50:44.006Z,102559.13
2024-01-30T09:53:21.137Z,102560.47
2024-01-30T09:55:48.786Z,102569.69
2024-01-30T09:58:18.379Z,102576.38
2024-01-30T10:00:45.561Z,102577.97
2024-01-30T10:04:05.592Z,102584.66
2024-01-30T10:06:32.679Z,102595.06
2024-01-30T10:09:10.543Z,102600.41
2024-01-30T10:11:38.088Z,102611.16
2024-01-30T10:14:05.291Z,102603.59
2024-01-30T10:16:32.537Z,102616.66
2024-01-30T10:18:59.751Z,102610.31
2024-01-30T10:21:26.878Z,102613.63
2024-01-30T10:23:54.134Z,102614.75
2024-01-30T10:26:22.412Z,102608.00
2024-01-30T10:28:50.384Z,102618.41
2024-01-30T10:31:20.469Z,102611.00
2024-01-30T10:33:50.302Z,102613.53
2024-01-30T10:36:21.096Z,102610.31
2024-01-30T10:38:52.362Z,102611.13
2024-01-30T10:41:27.783Z,102611.09
2024-01-30T10:44:10.792Z,102611.97
2024-01-30T10:46:40.700Z,102616.41
2024-01-30T10:49:08.205Z,102613.03
2024-01-30T10:51:36.751Z,102608.38
2024-01-30T10:54:06.400Z,102610.88
2024-01-30T10:56:34.923Z,102614.91
2024-01-30T10:59:02.368Z,102619.47
2024-01-30T11:01:30.054Z,102612.31
2024-01-30T11:03:58.036Z,102614.19
2024-01-30T11:06:27.016Z,102613.16
2024-01-30T11:09:13.413Z,102618.38
2024-01-30T11:12:02.918Z,102628.84
2024-01-30T11:14:33.362Z,102620.69
2024-01-30T11:17:01.211Z,102642.69
2024-01-30T11:19:31.742Z,102627.38
2024-01-30T11:21:59.247Z,102623.09
2024-01-30T11:24:27.372Z,102625.34
2024-01-30T11:26:59.365Z,102625.41
2024-01-30T11:29:28.440Z,102622.34
2024-01-30T11:32:00.362Z,102612.44
2024-01-30T11:34:27.705Z,102622.03
2024-01-30T11:37:01.027Z,102612.06
2024-01-30T11:39:28.588Z,102624.50
2024-01-30T11:41:56.537Z,102618.41
2024-01-30T11:45:05.226Z,102630.47
2024-01-30T11:47:32.365Z,102627.97
2024-01-30T11:50:43.884Z,102635.44
2024-01-30T11:53:11.270Z,102631.66
2024-01-30T11:55:39.003Z,102629.22
2024-01-30T11:58:06.605Z,102638.34
2024-01-30T12:00:34.936Z,102638.00
2024-01-30T12:03:04.194Z,102631.50
2024-01-30T12:05:31.689Z,102641.47
2024-01-30T12:08:01.179Z,102638.72
2024-01-30T12:10:29.339Z,102640.75
2024-01-30T12:12:56.943Z,102644.13
2024-01-30T12:15:26.051Z,102644.06
2024-01-30T12:17:53.633Z,102643.16
2024-01-30T12:20:38.377Z,102652.84
2024-01-30T12:23:05.693Z,102657.97
2024-01-30T12:25:33.112Z,102648.91
2024-01-30T12:28:00.476Z,102660.59
2024-01-30T12:30:40.422Z,102660.84
2024-01-30T12:33:09.700Z,102645.44
2024-01-30T12:35:40.011Z,102662.03
2024-01-30T12:38:13.579Z,102653.44
2024-01-30T12:40:41.992Z,102659.19
2024-01-30T12:43:09.683Z,102664.19
2024-01-30T12:45:37.903Z,102665.56
2024-01-30T12:48:05.554Z,102671.97
2024-01-30T12:50:32.683Z,102674.06
2024-01-30T12:53:00.076Z,102676.38
2024-01-30T12:55:29.676Z,102685.59
2024-01-30T12:57:57.117Z,102684.25
2024-01-30T13:00:24.597Z,102693.94
2024-01-30T13:02:51.738Z,102696.22
2024-01-30T13:05:19.053Z,102691.31
2024-01-30T13:07:46.280Z,102689.63
2024-01-30T13:10:13.472Z,102680.44
2024-01-30T13:12:40.910Z,102686.31
2024-01-30T13:15:09.047Z,102698.13
2024-01-30T13:17:37.415Z,102694.88
2024-01-30T13:20:10.876Z,102697.03
2024-01-30T13:22:40.437Z,102690.25
2024-01-30T13:25:08.818Z,102704.06
2024-01-30T13:27:52.406Z,102707.91
2024-01-30T13:30:19.615Z,102710.31
2024-01-30T13:32:55.698Z,102706.28
2024-01-30T13:35:22.819Z,102699.28
2024-01-30T13:37:50.085Z,102698.19
2024-01-30T13:40:17.845Z,102712.09
2024-01-30T13:42:44.987Z,102724.91
2024-01-30T13:45:12.414Z,102716.94
2024-01-30T13:47:40.244Z,102724.88
2024-01-30T13:50:07.694Z,102724.72
2024-01-30T13:52:41.496Z,102729.91
2024-01-30T13:55:12.125Z,102737.78
2024-01-30T13:57:39.647Z,102737.69
2024-01-30T14:00:08.178Z,102740.94
2024-01-30T14:02:35.617Z,102738.50
2024-01-30T14:05:02.913Z,102732.16
2024-01-30T14:07:45.065Z,102727.69
2024-01-30T14:10:14.523Z,102731.31
2024-01-30T14:12:45.242Z,102743.53
2024-01-30T14:15:22.777Z,102746.13
2024-01-30T14:17:55.277Z,102745.44
2024-01-30T14:20:28.969Z,102736.41
2024-01-30T14:23:05.074Z,102739.91
2024-01-30T14:25:32.163Z,102748.91
2024-01-30T14:27:59.348Z,102753.31
2024-01-30T14:30:26.362Z,102763.81
2024-01-30T14:32:53.584Z,102751.88
2024-01-30T14:35:21.831Z,102768.03
2024-01-30T14:37:49.132Z,102770.69
2024-01-30T14:40:16.195Z,102773.47
2024-01-30T14:42:43.288Z,102776.25
2024-01-30T14:45:12.765Z,102772.75
2024-01-30T14:47:40.176Z,102776.09
2024-01-30T14:50:08.980Z,102781.34
2024-01-30T14:52:38.603Z,102777.03
2024-01-30T14:55:06.676Z,102797.00
2024-01-30T14:57:35.765Z,102792.06
2024-01-30T15:00:03.558Z,102806.72
2024-01-30T15:02:30.606Z,102795.22
2024-01-30T15:04:57.859Z,102806.84
2024-01-30T15:07:33.000Z,102810.56
2024-01-30T15:10:48.763Z,102805.53
2024-01-30T15:13:17.711Z,102819.25
2024-01-30T15:15:52.199Z,102818.06
2024-01-30T15:18:19.339Z,102814.22
2024-01-30T15:20:46.378Z,102820.47
2024-01-30T15:23:13.481Z,102833.34
2024-01-30T15:25:40.623Z,102836.16
2024-01-30T15:28:07.805Z,102836.03
2024-01-30T15:30:34.855Z,102841.81
2024-01-30T15:33:02.921Z,102851.38
2024-01-30T15:35:29.993Z,102853.13
2024-01-30T15:37:57.049Z,102846.72
2024-01-30T15:40:24.141Z,102852.81
2024-01-30T15:42:51.233Z,102870.94
2024-01-30T15:45:18.227Z,102881.47
2024-01-30T15:47:45.298Z,102880.25
2024-01-30T15:50:13.436Z,102881.56
2024-01-30T15:52:52.688Z,102885.84
2024-01-30T15:55:53.911Z,102895.16
2024-01-30T15:58:21.036Z,102903.66
2024-01-30T16:00:48.162Z,102901.59
2024-01-30T16:03:15.232Z,102918.06
2024-01-30T16:05:42.821Z,102905.25
2024-01-30T16:08:10.892Z,102910.09
2024-01-30T16:10:39.367Z,102911.44
2024-01-30T16:13:24.917Z,102916.25
2024-01-30T16:15:51.993Z,102912.16
2024-01-30T16:18:19.187Z,102914.69
2024-01-30T16:20:46.351Z,102911.53
2024-01-30T16:23:13.464Z,102905.63
2024-01-30T16:25:40.507Z,102913.88
2024-01-30T16:28:07.671Z,102917.81
2024-01-30T16:30:38.521Z,102924.28
2024-01-30T16:33:09.489Z,102912.50
2024-01-30T16:35:45.567Z,102920.16
2024-01-30T16:38:17.633Z,102920.66
2024-01-30T16:40:44.934Z,102923.38
2024-01-30T16:43:13.516Z,102923.69
2024-01-30T16:45:41.307Z,102935.22
2024-01-30T16:48:08.781Z,102946.91
2024-01-30T16:50:39.063Z,102949.28
2024-01-30T16:53:44.447Z,102944.59
2024-01-30T16:56:22.422Z,102947.91
2024-01-30T16:58:49.604Z,102949.59
2024-01-30T17:01:16.713Z,102944.66
2024-01-30T17:03:44.935Z,102950.94
2024-01-30T17:06:13.815Z,102960.94
2024-01-30T17:08:41.415Z,102963.97
2024-01-30T17:11:09.921Z,102972.22
2024-01-30T17:13:40.485Z,102965.09
2024-01-30T17:16:08.191Z,102969.22
2024-01-30T17:18:36.744Z,102973.41
2024-01-30T17:21:04.066Z,102983.13
2024-01-30T17:23:34.679Z,102992.88
2024-01-30T17:26:02.330Z,102996.13
2024-01-30T17:28:29.585Z,103008.69
2024-01-30T17:30:56.966Z,103001.72
2024-01-30T17:33:24.693Z,103005.25
2024-01-30T17:35:51.834Z,103009.00
2024-01-30T17:38:19.004Z,103009.88
2024-01-30T17:41:12.980Z,103016.75
2024-01-30T17:43:43.087Z,103019.75
2024-01-30T17:46:10.562Z,103017.78
2024-01-30T17:48:37.956Z,103025.16
2024-01-30T17:51:05.257Z,103026.50
2024-01-30T17:53:33.355Z,103022.94
2024-01-30T17:56:06.598Z,103033.22
2024-01-30T17:58:33.927Z,103031.75
2024-01-30T18:01:01.740Z,103035.09
2024-01-30T18:03:29.076Z,103039.34
2024-01-30T18:05:56.533Z,103041.69
2024-01-30T18:08:26.677Z,103047.69
2024-01-30T18:10:55.468Z,103052.59
2024-01-30T18:13:22.759Z,103053.09
2024-01-30T18:15:49.977Z,103060.84
2024-01-30T18:18:17.275Z,103065.94
2024-01-30T18:20:44.261Z,103042.94
2024-01-30T18:23:11.387Z,103048.59
2024-01-30T18:25:38.553Z,103051.47
2024-01-30T18:28:06.912Z,103052.34
2024-01-30T18:30:34.093Z,103050.34
2024-01-30T18:33:04.069Z,103057.22
2024-01-30T18:36:14.112Z,103049.19
2024-01-30T18:38:57.227Z,103059.75
2024-01-30T18:41:24.319Z,103055.28
2024-01-30T18:43:51.461Z,103057.16
2024-01-30T18:46:23.232Z,103069.00
2024-01-30T18:48:50.836Z,103076.72
2024-01-30T18:51:18.325Z,103071.94
2024-01-30T18:53:45.610Z,103076.13
2024-01-30T18:56:14.309Z,103073.41
2024-01-30T18:58:41.532Z,103075.06
2024-01-30T19:01:09.740Z,103069.00
2024-01-30T19:03:37.026Z,103079.91
2024-01-30T19:06:04.638Z,103077.13
2024-01-30T19:08:31.919Z,103076.19
2024-01-30T19:10:59.064Z,103079.00
2024-01-30T19:13:26.156Z,103077.34
2024-01-30T19:15:53.528Z,103082.56
2024-01-30T19:18:20.638Z,103099.00
2024-01-30T19:20:49.258Z,103102.47
2024-01-30T19:23:18.879Z,103102.00
2024-01-30T19:25:48.814Z,103108.72
2024-01-30T19:28:36.472Z,103097.75
2024-01-30T19:31:06.629Z,103095.84
2024-01-30T19:33:33.815Z,103095.16
2024-01-30T19:36:03.376Z,103093.75
2024-01-30T19:38:30.543Z,103094.06
2024-01-30T19:40:58.926Z,103107.53
2024-01-30T19:43:26.615Z,103109.53
2024-01-30T19:45:54.270Z,103111.63
2024-01-30T19:48:21.982Z,103110.69
2024-01-30T19:50:49.138Z,103101.94
2024-01-30T19:53:16.351Z,103109.63
2024-01-30T19:55:43.500Z,103112.78
2024-01-30T19:58:10.599Z,103112.38
2024-01-30T20:00:38.265Z,103117.06
2024-01-30T20:03:05.602Z,103129.69
2024-01-30T20:05:32.993Z,103116.84
2024-01-30T20:08:00.313Z,103117.97
2024-01-30T20:10:27.469Z,103131.69
2024-01-30T20:12:56.377Z,103131.84
2024-01-30T20:15:24.182Z,103134.91
2024-01-30T20:18:33.302Z,103149.34
2024-01-30T20:21:12.571Z,103141.31
2024-01-30T20:23:39.933Z,103154.41
2024-01-30T20:26:07.080Z,103155.00
2024-01-30T20:28:34.166Z,103158.63
2024-01-30T20:31:01.295Z,103158.34
2024-01-30T20:33:28.502Z,103160.44
2024-01-30T20:35:55.626Z,103168.19
2024-01-30T20:38:22.832Z,103161.81
2024-01-30T20:40:49.996Z,103163.78
2024-01-30T20:43:17.128Z,103170.06
2024-01-30T20:45:44.120Z,103160.72
2024-01-30T20:48:11.364Z,103168.72
2024-01-30T20:50:38.401Z,103164.38
2024-01-30T20:53:05.506Z,103170.63
2024-01-30T20:55:32.800Z,103172.78
2024-01-30T20:58:00.112Z,103177.53
2024-01-30T21:00:27.622Z,103176.78
2024-01-30T21:02:54.677Z,103179.59
2024-01-30T21:05:24.168Z,103180.28
2024-01-30T21:07:54.388Z,103182.22
2024-01-30T21:10:22.142Z,103178.44
2024-01-30T21:12:57.930Z,103182.59
2024-01-30T21:15:36.860Z,103192.06
2024-01-30T21:18:06.767Z,103201.31
2024-01-30T21:20:34.275Z,103195.13
2024-01-30T21:23:02.013Z,103202.44
2024-01-30T21:25:29.491Z,103204.88
2024-01-30T21:27:56.683Z,103201.97
2024-01-30T21:30:23.735Z,103204.56
2024-01-30T21:32:50.951Z,103214.22
2024-01-30T21:35:18.076Z,103213.19
2024-01-30T21:37:45.275Z,103211.50
2024-01-30T21:40:12.507Z,103216.50
2024-01-30T21:42:40.062Z,103221.22
2024-01-30T21:45:08.860Z,103229.94
2024-01-30T21:47:35.933Z,103235.00
2024-01-30T21:50:04.548Z,103226.47
2024-01-30T21:52:33.030Z,103232.19
2024-01-30T21:55:00.271Z,103244.09
2024-01-30T21:57:28.410Z,103241.69
2024-01-30T22:00:33.365Z,103245.59
2024-01-30T22:03:00.612Z,103243.59
2024-01-30T22:05:28.685Z,103239.19
2024-01-30T22:07:55.851Z,103234.25
2024-01-30T22:10:22.977Z,103230.88
2024-01-30T22:12:50.645Z,103224.69
2024-01-30T22:15:19.284Z,103243.63
2024-01-30T22:17:46.343Z,103242.81
2024-01-30T22:20:13.538Z,103241.63
2024-01-30T22:22:40.942Z,103242.75
2024-01-30T22:25:08.628Z,103243.53
2024-01-30T22:27:35.817Z,103246.03
2024-01-30T22:30:03.024Z,103242.56
2024-01-30T22:32:30.241Z,103248.59
2024-01-30T22:34:57.469Z,103250.25
2024-01-30T22:37:24.591Z,103240.91
2024-01-30T22:39:51.617Z,103249.47
2024-01-30T22:42:18.688Z,103239.53
2024-01-30T22:44:45.740Z,103242.28
2024-01-30T22:47:12.750Z,103243.28
2024-01-30T22:49:39.765Z,103233.06
2024-01-30T22:52:07.165Z,103236.00
2024-01-30T22:54:34.145Z,103231.75
2024-01-30T22:57:01.261Z,103234.97
2024-01-30T22:59:37.125Z,103237.63
2024-01-30T23:02:08.289Z,103243.78
2024-01-30T23:04:35.729Z,103235.81
2024-01-30T23:07:02.973Z,103240.22
2024-01-30T23:09:30.095Z,103241.53
2024-01-30T23:11:57.095Z,103243.03
2024-01-30T23:14:24.402Z,103244.53
2024-01-30T23:16:51.450Z,103246.28
2024-01-30T23:19:18.901Z,103248.63
2024-01-30T23:21:46.133Z,103243.13
2024-01-30T23:24:13.213Z,103245.63
2024-01-30T23:26:43.034Z,103237.50
2024-01-30T23:29:09.997Z,103235.56
2024-01-30T23:31:44.394Z,103242.91
2024-01-30T23:34:13.319Z,103227.97
2024-01-30T23:36:43.321Z,103239.47
2024-01-30T23:39:14.176Z,103229.53
2024-01-30T23:42:21.924Z,103236.31
2024-01-30T23:44:49.098Z,103247.91
2024-01-30T23:47:26.671Z,103246.75
2024-01-30T23:49:53.784Z,103241.91
2024-01-30T23:52:22.112Z,103247.81
2024-01-30T23:54:49.243Z,103240.44
2024-01-30T23:57:16.434Z,103240.59
2024-01-30T23:59:43.417Z,103241.84
